Weather observations for the past three days for
Sterling Municipal Airport
Imperial (Metric)
Date Time (mdt) Wind (mph) Vis. (mi.) Weather Sky Cond. Temperature (ºF) Relative Humidity Wind Chill (°F) Heat Index (°F) Pressure Precipitation (in)
Air Dwpt 6 hour altimeter (in) sea level (mb) 1 hr 3 hr 6 hr
Max. Min.
07 05:55 S 9 10.00 Fair CLR 32 32 100% 25 29.93 0.0
07 05:35 S 10 10.00 Fair CLR 32 32 100% 24 29.93 0.0
07 05:15 S 10 10.00 Fair CLR 32 32 100% 24 29.93 0.0
07 04:55 S 9 10.00 Fair CLR 32 32 100% 25 29.94 0.0
07 04:35 S 9 10.00 Fair CLR 32 32 100% 25 29.94 0.0
07 04:15 S 9 10.00 Fair CLR 32 32 100% 25 29.95 0.0
07 03:55 S 12 10.00 Fair CLR 33.8 32 93% 26 29.95 0.0
07 03:35 S 12 10.00 Fair CLR 33.8 32 93% 26 29.95 0.0
07 03:15 S 12 10.00 Fair CLR 33.8 32 93% 26 29.95 0.0
07 02:55 S 10 10.00 Fair CLR 33.8 32 93% 26 29.96 0.0
07 02:35 S 9 10.00 Fair CLR 33.8 32 93% 27 29.96 0.0
07 02:15 S 9 10.00 Fair CLR 33.8 32 93% 27 29.96 0.0
07 01:55 S 8 10.00 Fair CLR 32 32 100% 25 29.98 0.0
07 01:35 S 9 10.00 Fair CLR 33.8 32 93% 27 29.99 0.0
07 01:15 S 9 10.00 Fair CLR 33.8 32 93% 27 30 0.0
07 00:55 S 7 10.00 Fair CLR 35.6 32 87% 31 30 0.0
07 00:35 S 9 10.00 Fair CLR 35.6 32 87% 29 30 0.0
07 00:15 S 9 10.00 Fair CLR 37.4 32 81% 31 30 0.0
06 23:55 S 12 10.00 Fair CLR 37.4 32 81% 30 30 0.0
06 23:35 S 13 10.00 Fair CLR 37.4 32 81% 30 30.01 0.0
06 23:15 S 12 10.00 Fair CLR 37.4 32 81% 30 30.01 0.0
06 22:55 SW 12 10.00 Fair CLR 39.2 32 75% 33 30.02 0.0
06 22:35 SW 13 10.00 Fair CLR 39.2 32 75% 32 30.02 0.0
06 22:15 SW 14 10.00 Fair CLR 41 32 70% 34 30.03 0.0
06 21:55 SW 15 10.00 Fair CLR 41 32 70% 34 30.03 0.0
06 21:35 SW 13 10.00 Fair CLR 41 32 70% 34 30.04 0.0
06 21:15 S 10 10.00 Fair CLR 41 32 70% 35 30.04 0.0
06 20:55 S 10 10.00 Fair CLR 41 32 70% 35 30.04 0.0
06 20:35 S 10 10.00 Fair CLR 41 32 70% 35 30.04 0.0
06 20:15 S 8 10.00 Fair CLR 42.8 32 66% 39 30.04 0.0
06 19:55 S 10 10.00 Fair CLR 44.6 32 61% 40 30.03 0.0
06 19:35 S 12 10.00 Fair CLR 46.4 32 57% 42 30.03 0.0
06 19:15 SW 9 10.00 Fair CLR 48.2 30.2 50% 45 30.03 0.0
06 18:55 S 9 10.00 Fair CLR 50 30.2 47% 47 30.03 0.0
06 18:35 SW 15 10.00 Partly Cloudy SCT060 50 28.4 43% 45 30.03 0.0
06 18:15 SW 9 10.00 Fair CLR 50 28.4 43% 47 30.04 0.0
06 17:55 SW 13 10.00 Partly Cloudy SCT065 51.8 28.4 41% 30.04 0.0
06 17:35 S 6 10.00 Partly Cloudy SCT065 51.8 28.4 41% 30.04 0.0
06 17:15 SW 12 10.00 Partly Cloudy SCT065 51.8 28.4 41% 30.04 0.0
06 16:55 SW 13 10.00 Partly Cloudy SCT065 51.8 28.4 41% 30.04 0.0
06 16:35 SW 13 G 16 10.00 Overcast OVC055 51.8 28.4 41% 30.05 0.0
06 16:15 SW 5 10.00 Overcast SCT055 OVC070 50 28.4 43% 49 30.06 0.0
06 15:55 SW 8 10.00 Overcast OVC065 50 28.4 43% 47 30.06 0.0
06 15:35 S 8 10.00 Overcast SCT050 OVC065 50 28.4 43% 47 30.07 0.0
06 15:15 SW 12 10.00 Overcast SCT050 OVC065 50 28.4 43% 46 30.08 0.0
06 14:55 SW 10 10.00 Overcast SCT050 OVC065 50 30.2 47% 46 30.08 0.0
06 14:35 W 5 10.00 Overcast BKN050 OVC065 50 28.4 43% 49 30.09 0.0
06 14:15 W 5 10.00 Overcast OVC050 48.2 28.4 46% 47 30.1 0.0
06 13:55 N 5 10.00 Overcast OVC050 46.4 26.6 46% 45 30.11 0.0
06 13:35 N 6 10.00 Overcast BKN050 OVC065 50 28.4 43% 48 30.11 0.0
06 13:15 NW 5 10.00 Mostly Cloudy BKN050 BKN070 48.2 28.4 46% 47 30.11 0.0
06 12:55 Calm 10.00 Mostly Cloudy BKN046 BKN070 46.4 28.4 50% 30.12 0.0
06 12:35 E 5 10.00 Mostly Cloudy BKN043 46.4 28.4 50% 45 30.12 0.0
06 12:15 NE 8 10.00 Mostly Cloudy BKN043 BKN065 44.6 28.4 53% 41 30.12 0.0
06 11:55 N 8 10.00 Partly Cloudy SCT043 SCT065 46.4 28.4 50% 43 30.13 0.0
06 11:35 W 3 10.00 Partly Cloudy SCT043 44.6 26.6 49% 30.13 0.0
06 11:15 N 5 10.00 Mostly Cloudy SCT034 BKN040 BKN060 44.6 30.2 57% 43 30.13 0.0
06 10:55 Calm 10.00 Mostly Cloudy BKN034 BKN060 42.8 30.2 61% 30.13 0.0
06 10:35 Calm 10.00 Mostly Cloudy SCT030 BKN037 BKN060 42.8 32 66% 30.13 0.0
06 10:15 NE 6 10.00 Mostly Cloudy SCT028 BKN065 BKN085 41 35.6 81% 38 30.13 0.0
06 09:55 N 8 10.00 Mostly Cloudy SCT065 SCT075 BKN085 37.4 37.4 100% 32 30.12 0.0
06 09:35 N 6 10.00 Mostly Cloudy SCT075 BKN085 BKN120 37.4 37.4 100% 33 30.12 0.0
06 09:15 N 3 10.00 Mostly Cloudy SCT060 BKN110 35.6 35.6 100% 30.11 0.0
06 08:55 N 7 10.00 Mostly Cloudy BKN110 35.6 35.6 100% 31 30.12 0.0
06 08:35 N 3 10.00 Overcast SCT060 OVC100 35.6 35.6 100% 30.11 0.0
06 08:15 N 6 10.00 Overcast OVC100 35.6 35.6 100% 31 30.11 0.0
06 07:55 Calm 10.00 Overcast SCT048 BKN060 OVC110 33.8 33.8 100% 30.11 0.0
06 07:35 N 3 10.00 Overcast SCT049 OVC060 33.8 33.8 100% 30.1 0.0
06 07:15 N 3 10.00 Overcast OVC060 33.8 33.8 100% 30.11 0.0
06 06:55 N 5 10.00 Overcast OVC050 33.8 33.8 100% 30 30.09 0.0
06 06:35 N 5 10.00 Overcast SCT004 OVC050 33.8 33.8 100% 30 30.08 0.0
06 05:55 N 5 10.00 Light Rain OVC002 33.8 33.8 100% 30 30.07 0.0
06 05:35 N 6 10.00 Light Drizzle OVC002 33.8 33.8 100% 29 30.06 0.0
06 05:15 N 5 7.00 Unknown Precip BKN002 OVC010 33.8 33.8 100% 30 30.06 0.0
06 04:55 N 6 4.00 Light Snow SCT002 BKN008 OVC016 32 32 100% 27 30.06 0.0 0.01
06 04:35 N 8 4.00 Light Snow BKN008 OVC014 33.8 33.8 100% 28 30.04 0.0 0.01
06 04:15 W 7 7.00 Light Rain SCT010 OVC014 35.6 35.6 100% 31 30.05 0.0
06 03:55 W 7 7.00 Light Rain OVC016 35.6 35.6 100% 31 30.04 0.0
06 03:35 W 6 10.00 Rain BKN018 BKN030 OVC050 35.6 35.6 100% 31 30.04 0.0
06 03:15 W 5 10.00 Light Rain SCT039 OVC050 35.6 35.6 100% 32 30.03 0.0
06 02:55 SW 3 10.00 Overcast SCT017 BKN041 OVC048 35.6 35.6 100% 30.03 0.0 0.01
06 02:35 Calm 7.00 Drizzle SCT011 BKN016 OVC032 35.6 35.6 100% 30.02 0.0 0.01
06 02:15 W 6 10.00 Light Rain OVC012 35.6 35.6 100% 31 30.03 0.0
06 01:55 W 7 10.00 Light Rain BKN014 OVC021 35.6 35.6 100% 31 30.03 0.0
06 01:35 Calm 10.00 Rain BKN016 OVC023 37.4 37.4 100% 30.04 0.0
06 01:15 Calm 10.00 Light Rain BKN019 BKN026 OVC031 37.4 37.4 100% 30.04 0.0
06 00:55 Calm 10.00 Light Rain BKN025 OVC031 35.6 35.6 100% 30.04 0.0
06 00:35 Calm 10.00 Light Drizzle SCT024 BKN030 OVC038 35.6 35.6 100% 30.04 0.0
06 00:15 Calm 10.00 Overcast BKN041 BKN050 OVC060 35.6 35.6 100% 30.03 0.0
05 23:55 E 3 10.00 Light Drizzle SCT012 BKN032 OVC041 35.6 35.6 100% 30.02 0.0
05 23:35 SE 3 10.00 Overcast SCT012 BKN024 OVC041 37.4 37.4 100% 30.02 0.0
05 23:15 Calm 10.00 Light Rain BKN024 BKN029 OVC035 37.4 37.4 100% 30.02 0.0
05 22:55 Calm 10.00 Light Drizzle SCT024 OVC033 37.4 37.4 100% 30.01 0.0
05 22:35 N 3 10.00 Rain SCT018 OVC024 37.4 37.4 100% 30.01 0.0
05 22:15 N 6 10.00 Light Rain BKN018 OVC024 37.4 37.4 100% 33 30.02 0.0
05 21:55 NW 5 10.00 Drizzle BKN024 BKN032 OVC039 37.4 37.4 100% 34 30.01 0.0
05 21:35 NW 6 10.00 Rain BKN024 OVC035 37.4 37.4 100% 33 30 0.0
05 21:15 NW 6 10.00 Light Drizzle BKN026 OVC033 37.4 37.4 100% 33 30 0.0
05 20:55 W 3 10.00 Light Drizzle BKN024 OVC029 37.4 37.4 100% 29.99 0.0
05 20:35 Calm 10.00 Overcast SCT030 SCT036 OVC043 37.4 37.4 100% 29.98 0.0
05 20:15 Calm 10.00 Overcast SCT029 SCT035 OVC045 35.6 35.6 100% 29.97 0.0
05 19:55 Calm 10.00 Light Drizzle BKN025 BKN032 OVC039 35.6 35.6 100% 29.96 0.0 0.01
05 19:35 NE 3 10.00 Rain SCT007 BKN022 OVC030 35.6 35.6 100% 29.96 0.0 0.01
05 19:15 NE 6 7.00 Light Rain BKN007 BKN011 OVC019 35.6 35.6 100% 31 29.96 0.0 0.01
05 18:55 N 3 7.00 Light Rain BKN007 OVC017 35.6 35.6 100% 29.96 0.0 0.01
05 18:35 N 6 7.00 Light Rain BKN007 BKN013 OVC018 35.6 35.6 100% 31 29.96 0.0 0.01
05 18:15 N 7 5.00 Rain BKN009 BKN013 OVC018 35.6 35.6 100% 31 29.96 0.0 0.01
05 17:55 N 5 7.00 Light Rain OVC011 37.4 37.4 100% 34 29.95 0.0 0.01
05 17:35 N 5 10.00 Light Rain OVC009 37.4 37.4 100% 34 29.95 0.0 0.01
05 17:15 N 5 10.00 Light Rain BKN009 BKN013 OVC018 37.4 37.4 100% 34 29.95 0.0
05 16:55 N 5 10.00 Light Rain BKN013 OVC019 37.4 37.4 100% 34 29.94 0.0 0.01
05 16:35 N 9 10.00 Light Rain BKN010 OVC016 37.4 37.4 100% 31 29.94 0.0 0.01
05 16:15 N 7 10.00 Light Rain OVC012 37.4 37.4 100% 33 29.94 0.0
05 15:55 N 9 10.00 Light Rain OVC016 37.4 37.4 100% 31 29.94 0.0
05 15:35 N 8 10.00 Light Rain OVC014 37.4 37.4 100% 32 29.95 0.0
05 15:15 N 9 10.00 Rain BKN012 BKN019 OVC024 37.4 37.4 100% 31 29.95 0.0
05 14:55 N 8 10.00 Light Drizzle BKN012 BKN017 OVC026 37.4 37.4 100% 32 29.95 0.0 0.01
05 14:35 N 10 10.00 Rain OVC014 37.4 37.4 100% 31 29.95 0.0
05 14:15 N 10 10.00 Light Rain BKN010 OVC016 37.4 37.4 100% 31 29.96 0.0
05 13:55 N 7 10.00 Rain BKN010 OVC013 37.4 37.4 100% 33 29.97 0.0 0.04
05 13:35 N 6 5.00 Light Rain BKN007 OVC011 35.6 35.6 100% 31 29.97 0.0 0.04
05 13:15 NW 8 2.00 Rain SCT005 OVC011 35.6 35.6 100% 30 29.98 0.0 0.02
05 12:55 NW 9 7.00 Rain OVC012 37.4 37.4 100% 31 29.98 0.0 0.03
05 12:35 NW 6 10.00 Light Rain OVC010 37.4 37.4 100% 33 29.98 0.0 0.01
05 12:15 Calm 7.00 Light Rain BKN008 BKN013 OVC018 37.4 37.4 100% 29.98 0.0 0.01
05 11:55 Calm 10.00 Light Rain OVC008 37.4 37.4 100% 29.99 0.0 0.04
05 11:35 Calm 7.00 Light Rain BKN008 OVC018 37.4 37.4 100% 29.99 0.0 0.03
05 10:55 Calm 7.00 Light Rain BKN006 OVC016 37.4 37.4 100% 30 0.0 0.04
05 10:35 Calm 7.00 Light Rain OVC006 35.6 35.6 100% 29.99 0.0 0.03
05 10:15 Calm 5.00 Light Rain BKN006 OVC018 35.6 35.6 100% 30 0.0 0.02
05 09:55 Calm 7.00 Rain SCT006 OVC016 35.6 35.6 100% 30 0.0 0.07
05 09:35 W 3 4.00 Rain OVC016 35.6 35.6 100% 29.99 0.0 0.05
05 09:15 W 5 2.50 Light Snow SCT005 OVC016 35.6 35.6 100% 32 29.99 0.0 0.03
05 08:55 W 6 5.00 Light Rain SCT005 OVC018 35.6 35.6 100% 31 29.99 0.0 0.03
05 08:35 NW 6 4.00 Rain OVC018 35.6 35.6 100% 31 29.99 0.0 0.02
05 08:15 NW 7 3.00 Rain SCT007 BKN016 OVC022 35.6 35.6 100% 31 29.98 0.0 0.01
05 07:55 NW 9 7.00 Light Rain BKN007 BKN013 OVC027 37.4 37.4 100% 31 29.98 0.0
05 07:35 NW 9 10.00 Light Rain BKN007 BKN013 OVC021 37.4 37.4 100% 31 29.97 0.0
05 07:15 NW 9 10.00 Rain BKN007 BKN033 OVC040 37.4 37.4 100% 31 29.96 0.0
05 06:35 N 7 10.00 Light Rain BKN010 BKN014 OVC065 37.4 37.4 100% 33 29.95 0.0
05 06:15 N 6 10.00 Light Drizzle SCT007 BKN049 OVC065 37.4 37.4 100% 33 29.93 0.0
05 05:55 N 6 10.00 Light Rain SCT006 BKN010 OVC047 37.4 37.4 100% 33 29.93 0.0 0.01
05 05:15 N 8 7.00 Light Rain SCT009 BKN013 OVC019 37.4 37.4 100% 32 29.94 0.0
05 04:55 N 9 5.00 Rain BKN011 BKN019 OVC030 39.2 37.4 93% 34 29.94 0.0 0.01
05 04:35 N 10 10.00 Light Rain SCT012 BKN018 OVC048 41 37.4 87% 35 29.95 0.0
05 04:15 N 8 10.00 Light Rain SCT035 OVC046 41 37.4 87% 36 29.94 0.0
05 03:55 N 8 10.00 Overcast OVC046 42.8 37.4 81% 39 29.93 0.0
05 03:35 N 8 10.00 Light Rain SCT030 BKN038 OVC046 42.8 37.4 81% 39 29.93 0.0
05 03:15 N 7 10.00 Light Drizzle BKN034 OVC041 42.8 35.6 76% 39 29.93 0.0
05 02:55 N 12 10.00 Overcast BKN034 OVC047 44.6 33.8 66% 39 29.93 0.0
05 02:35 N 10 10.00 Overcast OVC047 46.4 32 57% 42 29.92 0.0
05 02:15 N 8 10.00 Overcast SCT047 OVC060 46.4 32 57% 43 29.93 0.0
05 01:55 N 8 10.00 Overcast OVC060 46.4 32 57% 43 29.91 0.0
05 01:35 N 8 10.00 Overcast OVC060 46.4 32 57% 43 29.9 0.0
05 01:15 N 10 10.00 Overcast SCT060 OVC080 48.2 33.8 58% 44 29.9 0.0
05 00:55 NE 9 10.00 Overcast BKN080 OVC090 48.2 33.8 58% 45 29.89 0.0
05 00:35 NE 7 G 16 10.00 Overcast SCT065 OVC090 48.2 33.8 58% 46 29.89 0.0
05 00:15 N 9 G 18 10.00 Overcast BKN065 BKN080 OVC095 48.2 33.8 58% 45 29.89 0.0
04 23:55 NE 10 G 16 10.00 Mostly Cloudy BKN080 48.2 33.8 58% 44 29.88 0.0
04 23:35 NE 12 G 18 10.00 Overcast SCT075 OVC080 50 33.8 54% 46 29.87 0.0
04 23:15 N 16 G 21 10.00 Overcast SCT039 BKN060 OVC070 50 33.8 54% 45 29.87 0.0
04 22:55 N 15 G 28 10.00 Overcast OVC070 51.8 33.8 50% 29.86 0.0
04 22:35 N 17 G 21 10.00 Overcast OVC070 55.4 33.8 44% 29.86 0.0
04 22:15 NE 7 10.00 Overcast BKN070 BKN085 OVC100 55.4 32 41% 29.85 0.0
04 21:55 NE 8 10.00 Mostly Cloudy BKN070 55.4 32 41% 29.84 0.0
04 21:35 NE 10 G 16 10.00 Mostly Cloudy BKN070 BKN080 55.4 32 41% 29.84 0.0
04 21:15 NE 9 10.00 Partly Cloudy SCT080 57.2 32 39% 29.84 0.0
04 20:55 N 10 10.00 Partly Cloudy SCT110 57.2 32 39% 29.83 0.0
04 20:35 N 10 G 17 10.00 Partly Cloudy SCT110 59 33.8 39% 29.82 0.0
04 20:15 NE 10 G 18 10.00 Mostly Cloudy SCT080 BKN120 59 33.8 39% 29.8 0.0
04 19:55 NE 13 G 17 10.00 Mostly Cloudy BKN090 59 33.8 39% 29.79 0.0
04 19:35 NE 9 10.00 Partly Cloudy SCT090 60.8 33.8 36% 29.78 0.0
04 19:15 NE 12 G 17 10.00 Fair CLR 62.6 33.8 34% 29.77 0.0
04 18:55 NE 10 10.00 Fair CLR 62.6 33.8 34% 29.77 0.0
04 18:35 NE 10 G 21 10.00 Partly Cloudy SCT080 62.6 33.8 34% 29.77 0.0
04 18:15 N 13 G 20 10.00 Partly Cloudy SCT090 62.6 33.8 34% 29.76 0.0
04 17:55 NE 14 G 20 10.00 Fair CLR 64.4 33.8 32% 29.75 0.0
04 17:35 N 16 G 25 10.00 Fair CLR 64.4 33.8 32% 29.75 0.0
04 17:15 N 16 G 21 10.00 Fair CLR 66.2 33.8 30% 29.75 0.0
04 16:55 N 17 G 21 10.00 Fair CLR 66.2 33.8 30% 29.74 0.0
04 16:35 N 18 G 29 10.00 Fair CLR 68 33.8 28% 29.73 0.0
04 16:15 N 16 G 26 10.00 Fair CLR 68 33.8 28% 29.73 0.0
04 15:55 N 14 G 24 10.00 Fair CLR 69.8 33.8 27% 29.72 0.0
04 15:35 N 17 G 25 10.00 Fair CLR 69.8 33.8 27% 29.72 0.0
04 15:15 N 20 G 25 10.00 Partly Cloudy SCT120 69.8 33.8 27% 29.72 0.0
04 14:55 N 18 G 25 10.00 Fair CLR 71.6 33.8 25% 29.71 0.0
04 14:35 N 17 G 26 10.00 Fair CLR 75.2 35.6 24% 76 29.71 0.0
04 14:15 N 22 G 35 10.00 Fair and Breezy CLR 73.4 33.8 23% 29.69 0.0
04 13:55 NE 9 G 16 10.00 Fair CLR 75.2 28.4 18% 76 29.68 0.0
04 13:35 E 5 10.00 Fair CLR 77 28.4 17% 77 29.68 0.0
04 13:15 NE 6 10.00 Fair CLR 77 28.4 17% 77 29.69 0.0
04 12:55 N 9 10.00 Fair CLR 77 30.2 18% 77 29.69 0.0
04 12:35 NE 9 10.00 Fair CLR 75.2 30.2 19% 76 29.7 0.0
04 12:15 NE 6 10.00 Fair CLR 75.2 30.2 19% 76 29.71 0.0
04 11:55 SE 6 10.00 Fair CLR 73.4 30.2 20% 29.72 0.0
04 11:35 E 7 10.00 Fair CLR 73.4 32 22% 29.73 0.0
04 11:15 Calm 10.00 Fair CLR 73.4 32 22% 29.73 0.0
04 10:55 SE 6 10.00 Fair CLR 69.8 35.6 29% 29.74 0.0
04 10:35 S 5 10.00 Fair CLR 68 37.4 33% 29.75 0.0
04 10:15 SE 5 10.00 Fair CLR 68 37.4 33% 29.75 0.0
04 09:55 S 5 10.00 Fair CLR 64.4 37.4 37% 29.75 0.0
04 09:35 S 3 10.00 Fair CLR 62.6 37.4 39% 29.75 0.0
04 09:15 S 3 10.00 Fair CLR 60.8 35.6 39% 29.75 0.0
04 08:55 SE 5 10.00 Fair CLR 59 35.6 42% 29.75 0.0
04 08:35 SE 3 10.00 Fair CLR 55.4 35.6 47% 29.76 0.0
04 08:15 S 5 10.00 Fair CLR 50 35.6 58% 49 29.77 0.0
04 07:55 S 5 10.00 Fair CLR 48.2 33.8 58% 47 29.76 0.0
04 07:35 S 5 10.00 Fair CLR 44.6 33.8 66% 43 29.77 0.0
04 07:15 SE 3 10.00 Fair CLR 42.8 32 66% 29.76 0.0
04 06:55 S 6 10.00 Fair CLR 41 32 70% 38 29.76 0.0
04 06:30 S 7 10.00 Fair CLR 35.6 32 87% 31 29.76 0.0
Date Time (mdt) Wind (mph) Vis. (mi.) Weather Sky Cond. Air Dwpt Max. Min. Relative Humidity Wind Chill (°F) Heat Index (°F) altimeter (in) sea level (mb) 1 hr 3 hr 6 hr
6 hour
Temperature (ºF) Pressure Precipitation (in)